• Join FlightAware (Why Join?)
  • Login
  • US Flag 
01:47AM EST


 

Airport Tracker/Info


-or-


 

Live Flight TrackerFlight Track Log ✈ N493S ✈ 15-May-2013 ✈ KBED - KSJC

Flight Track Log - Related Links

Times and Time Zones

All times are in EDT time to prevent confusion due to time zone crossing. See the N493S flight status page for this flight to view local times or setup timezone preferences in your user account.

Time Position Orientation Groundspeed Altitude Reporting Facility
EDT Latitude Longitude Course Direction KTS MPH feet Rate Location/Type
06:31PM 42.4667 -71.2667 56° Northeast 212 244 900  Level KA90
06:32PM 42.4833 -71.2333 56° Northeast 206 237 1,600 1,740 Climbing KA90
06:33PM 42.5333 -71.1667 44° Northeast 281 323 3,400 2,220 Climbing KA90
06:34PM 42.6278 -71.0911 30° Northeast 310 357 7,000 2,640 Climbing Boston Center
06:35PM 42.7008 -71.0897 North 283 326 9,800 3,180 Climbing Boston Center
06:36PM 42.7456 -71.1706 307° West 238 274 13,400 3,180 Climbing Boston Center
06:37PM 42.7919 -71.2347 315° West 246 283 16,200 2,700 Climbing Boston Center
06:38PM 42.8386 -71.3019 313° West 246 283 18,800 2,100 Climbing Boston Center
06:39PM 42.8914 -71.3775 314° West 252 290 20,400 1,500 Climbing Boston Center
06:40PM 42.9464 -71.4531 315° West 287 330 21,800 1,380 Climbing Boston Center
06:41PM 43.0158 -71.5542 313° West 322 371 23,200 1,380 Climbing Boston Center
06:42PM 43.0833 -71.6611 311° West 346 398 24,600 1,320 Climbing Boston Center
06:43PM 43.1028 -71.7719 284° West 354 407 25,900 1,620 Climbing Boston Center
06:44PM 43.1286 -71.9422 282° West 374 430 27,900 1,740 Climbing Boston Center
06:45PM 43.1542 -72.0844 284° West 380 437 29,400 1,440 Climbing Boston Center
06:46PM 43.1775 -72.2294 282° West 391 450 30,800 1,380 Climbing Boston Center
06:47PM 43.2006 -72.3747 282° West 396 456 32,200 1,380 Climbing Boston Center
06:48PM 43.2172 -72.5114 280° West 396 456 33,600 1,440 Climbing Boston Center
06:49PM 43.2192 -72.6622 271° West 396 456 35,100 1,380 Climbing Boston Center
06:50PM 43.2208 -72.8106 271° West 396 456 36,400 1,200 Climbing Boston Center
06:51PM 43.2203 -72.9586 270° West 396 456 37,600 1,200 Climbing Boston Center
06:52PM 43.2197 -73.1011 270° West 391 450 38,800 960 Climbing Boston Center
06:53PM 43.2167 -73.2436 268° West 380 437 39,600 600 Climbing Boston Center
06:54PM 43.2133 -73.3944 268° West 374 430 40,000 180 Climbing Boston Center
06:55PM 43.2122 -73.5369 269° West 374 430 40,000  Level Boston Center
06:56PM 43.2106 -73.6850 269° West 374 430 40,000  Level Boston Center
06:57PM 43.2092 -73.8131 269° West 380 437 40,000 -60 Level Boston Center
06:58PM 43.2072 -73.9583 269° West 380 437 39,900  Descending Boston Center
06:59PM 43.2053 -74.1036 269° West 380 437 40,000  Climbing Boston Center
07:00PM 43.2025 -74.2831 269° West 380 437 40,000  Level Boston Center
07:01PM 43.2022 -74.4283 270° West 380 437 40,000  Level Boston Center
07:02PM 43.1994 -74.5764 269° West 385 443 40,000  Level Boston Center
07:03PM 43.1967 -74.7214 269° West 385 443 40,000  Level Boston Center
07:04PM 43.1936 -74.8667 268° West 385 443 40,000  Level Boston Center
07:05PM 43.1903 -75.0144 268° West 385 443 40,000  Level Boston Center
07:06PM 43.1850 -75.1567 267° West 385 443 40,000  Level Boston Center
07:07PM 43.1814 -75.3019 268° West 385 443 40,000  Level Boston Center
07:08PM 43.1797 -75.4497 269° West 385 443 40,000  Level Boston Center
07:09PM 43.1775 -75.6092 269° West 385 443 40,000  Level Boston Center
07:10PM 43.1736 -75.7514 268° West 380 437 40,000  Level Boston Center
07:12PM 43.1500 -75.9333 260° West 380 437 40,000  Level Toronto Center
07:13PM 43.1636 -76.0569 279° West 369 425 40,000  Level Cleveland Center
07:14PM 43.1717 -76.2103 274° West 374 430 40,000  Level Cleveland Center
07:15PM 43.1792 -76.3522 274° West 374 430 40,000  Level Cleveland Center
07:16PM 43.1883 -76.4967 275° West 380 437 40,000  Level Cleveland Center
07:17PM 43.1975 -76.6414 275° West 385 443 40,000  Level Cleveland Center
07:18PM 43.2067 -76.7861 275° West 385 443 40,000  Level Cleveland Center
07:19PM 43.2153 -76.9281 275° West 385 443 40,000  Level Cleveland Center
07:20PM 43.2214 -77.0589 274° West 385 443 40,000  Level Cleveland Center
07:21PM 43.2300 -77.2039 275° West 385 443 40,000  Level Cleveland Center
07:22PM 43.2383 -77.3486 275° West 385 443 40,000  Level Cleveland Center
07:23PM 43.2464 -77.4936 274° West 385 443 40,000  Level Cleveland Center
07:24PM 43.2542 -77.6358 274° West 385 443 40,000  Level Cleveland Center
07:25PM 43.2622 -77.7836 274° West 385 443 40,000  Level Cleveland Center
07:26PM 43.2675 -77.9289 273° West 385 443 40,000  Level Cleveland Center
07:27PM 43.2750 -78.0739 274° West 385 443 40,000  Level Cleveland Center
07:28PM 43.2822 -78.2219 274° West 385 443 40,000  Level Cleveland Center
07:29PM 43.2894 -78.3672 274° West 385 443 40,000  Level Cleveland Center
07:30PM 43.2961 -78.5125 274° West 385 443 40,000  Level Cleveland Center
07:31PM 43.3028 -78.6606 274° West 385 443 40,000  Level Cleveland Center
07:33PM 43.3000 -79.0000 269° West 390 449 40,000  Level Toronto Center
07:34PM 43.3167 -79.1333 280° West 390 449 40,000  Level Toronto Center
07:35PM 43.3167 -79.2833 270° West 390 449 40,000  Level Toronto Center
07:36PM 43.3167 -79.4333 270° West 390 449 40,000  Level Toronto Center
07:37PM 43.3333 -79.5833 279° West 390 449 40,000  Level Toronto Center
07:38PM 43.3333 -79.7167 270° West 390 449 40,000  Level Toronto Center
07:39PM 43.3333 -79.8833 270° West 380 437 40,000  Level Toronto Center
07:40PM 43.3333 -80.0167 270° West 380 437 40,000  Level Toronto Center
07:41PM 43.3500 -80.1667 279° West 380 437 40,000  Level Toronto Center
07:42PM 43.3500 -80.3000 270° West 380 437 40,000  Level Toronto Center
07:43PM 43.3500 -80.4667 270° West 380 437 40,000  Level Toronto Center
07:44PM 43.3667 -80.6167 279° West 380 437 40,000  Level Toronto Center
07:45PM 43.3667 -80.7500 270° West 380 437 40,000  Level Toronto Center
07:46PM 43.3500 -80.9000 261° West 380 437 40,000  Level Toronto Center
07:47PM 43.3667 -81.0333 280° West 380 437 40,000  Level Toronto Center
07:48PM 43.3667 -81.2000 270° West 380 437 40,000  Level Toronto Center
07:49PM 43.3667 -81.3333 270° West 380 437 40,000  Level Toronto Center
07:50PM 43.3667 -81.4667 270° West 380 437 40,000  Level Toronto Center
07:51PM 43.3833 -81.6333 278° West 380 437 40,000  Level Toronto Center
07:52PM 43.3833 -81.7667 270° West 370 426 40,000  Level Toronto Center
07:53PM 43.3833 -81.9000 270° West 370 426 40,000  Level Toronto Center
07:54PM 43.3667 -82.0333 260° West 370 426 40,000  Level Toronto Center
07:55PM 43.3917 -82.1344 289° West 379 436 40,000  Level Cleveland Center
07:56PM 43.3958 -82.2831 272° West 379 436 40,000  Level Cleveland Center
07:57PM 43.3958 -82.4231 270° West 379 436 40,000  Level Cleveland Center
07:58PM 43.3956 -82.5658 270° West 379 436 40,000  Level Cleveland Center
07:59PM 43.3972 -82.7117 271° West 384 442 40,000  Level Cleveland Center
08:00PM 43.3986 -82.8517 271° West 384 442 40,000  Level Cleveland Center
08:01PM 43.4000 -82.9947 271° West 384 442 40,000  Level Cleveland Center
08:02PM 43.3989 -83.1375 269° West 384 442 40,000  Level Cleveland Center
08:03PM 43.4019 -83.2833 272° West 384 442 40,000  Level Cleveland Center
08:04PM 43.4006 -83.4289 269° West 384 442 40,000  Level Cleveland Center
08:05PM 43.4011 -83.5719 270° West 384 442 40,000  Level Cleveland Center
08:06PM 43.4014 -83.7178 270° West 384 442 40,000  Level Cleveland Center
08:07PM 43.3994 -83.8633 269° West 384 442 40,000  Level Cleveland Center
08:08PM 43.3992 -84.0178 270° West 384 442 40,000  Level Cleveland Center
08:09PM 43.3989 -84.1606 270° West 384 442 40,000  Level Cleveland Center
08:10PM 43.3964 -84.3061 269° West 384 442 40,000  Level Cleveland Center
08:11PM 43.3969 -84.5006 270° West 381 438 40,000  Level Minneapolis Center
08:12PM 43.3958 -84.6450 269° West 380 437 40,000  Level Minneapolis Center
08:13PM 43.3933 -84.7900 269° West 380 437 40,000  Level Minneapolis Center
08:14PM 43.3922 -84.9356 269° West 381 438 40,000  Level Minneapolis Center
08:15PM 43.3892 -85.1386 269° West 381 438 40,000  Level Minneapolis Center
08:16PM 43.3872 -85.2822 269° West 379 436 40,000  Level Minneapolis Center
08:17PM 43.3853 -85.4269 269° West 380 437 40,000  Level Minneapolis Center
08:19PM 43.3825 -85.5711 269° West 379 436 40,000  Level Minneapolis Center
08:20PM 43.3797 -85.7444 269° West 381 438 40,000  Level Minneapolis Center
08:21PM 43.3756 -85.9458 268° West 381 438 40,000  Level Minneapolis Center
08:21PM 43.3756 -85.9733 270° West 379 436 40,000  Level Chicago Center
08:22PM 43.3711 -86.1483 268° West 386 444 40,000  Level Chicago Center
08:23PM 43.3675 -86.2936 268° West 385 443 40,000  Level Chicago Center
08:24PM 43.3642 -86.4394 268° West 386 444 40,000  Level Chicago Center
08:25PM 43.3611 -86.5858 268° West 386 444 40,000  Level Chicago Center
08:27PM 43.3567 -86.7606 268° West 384 442 40,000  Level Chicago Center
08:28PM 43.3519 -86.9064 268° West 385 443 40,000  Level Chicago Center
08:29PM 43.3478 -87.0550 268° West 389 448 40,000  Level Chicago Center
08:30PM 43.3428 -87.2017 267° West 388 447 40,000  Level Chicago Center
08:31PM 43.3369 -87.3661 267° West 389 448 40,000  Level Chicago Center
08:32PM 43.3308 -87.5144 267° West 387 445 40,000  Level Chicago Center
08:33PM 43.3258 -87.6633 267° West 389 448 40,000  Level Chicago Center
08:34PM 43.3208 -87.8128 267° West 390 449 40,000  Level Chicago Center
08:35PM 43.3136 -87.9881 267° West 394 453 40,000  Level Chicago Center
08:36PM 43.3075 -88.1383 267° West 392 451 40,000  Level Chicago Center
08:37PM 43.3003 -88.2883 266° West 391 450 40,000  Level Chicago Center
08:38PM 43.2931 -88.4400 266° West 393 452 40,000  Level Chicago Center
08:39PM 43.2869 -88.5931 267° West 393 452 40,000  Level Chicago Center
08:40PM 43.2800 -88.7456 266° West 395 455 40,000  Level Chicago Center
08:41PM 43.2739 -88.8967 267° West 394 453 40,000  Level Chicago Center
08:42PM 43.2656 -89.0722 266° West 395 455 40,000  Level Chicago Center
08:43PM 43.2575 -89.2233 266° West 396 456 40,000  Level Chicago Center
08:44PM 43.2508 -89.3744 267° West 397 457 40,000  Level Chicago Center
08:45PM 43.2431 -89.5261 266° West 398 458 40,000  Level Chicago Center
08:46PM 43.2333 -89.6778 265° West 399 459 40,000  Level Chicago Center
08:47PM 43.2250 -89.8286 266° West 397 457 40,000  Level Chicago Center
08:48PM 43.2158 -90.0053 266° West 399 459 40,000  Level Chicago Center
08:49PM 43.2061 -90.1572 265° West 399 459 40,000  Level Chicago Center
08:50PM 43.1978 -90.2906 265° West 399 459 40,000  Level Chicago Center
08:51PM 43.1872 -90.4728 266° West 405 466 40,000  Level Chicago Center
08:52PM 43.1781 -90.6222 265° West 401 461 40,000  Level Chicago Center
08:53PM 43.1728 -90.7125 265° West 402 463 40,000  Level Minneapolis Center
08:54PM 43.1636 -90.8625 265° West 401 461 40,000  Level Minneapolis Center
08:55PM 43.1542 -91.0139 265° West 403 464 40,000  Level Minneapolis Center
08:56PM 43.1425 -91.1956 265° West 404 465 40,000  Level Minneapolis Center
08:57PM 43.1328 -91.3453 265° West 402 463 40,000 60 Level Minneapolis Center
08:58PM 43.1206 -91.5281 265° West 408 470 40,200 360 Climbing Minneapolis Center
08:59PM 43.1097 -91.6786 264° West 407 468 40,900 720 Climbing Minneapolis Center
09:00PM 43.0956 -91.8572 264° West 403 464 41,800 660 Climbing Minneapolis Center
09:01PM 43.0842 -92.0056 264° West 400 460 42,300 420 Climbing Minneapolis Center
09:03PM 43.0739 -92.1519 265° West 392 451 42,700 300 Climbing Minneapolis Center
09:04PM 43.0619 -92.3008 264° West 398 458 43,000 120 Climbing Minneapolis Center
09:05PM 43.0483 -92.4803 264° West 402 463 43,000  Level Minneapolis Center
09:06PM 43.0353 -92.6333 263° West 408 470 43,000  Level Minneapolis Center
09:07PM 43.0225 -92.7856 264° West 408 470 43,000  Level Minneapolis Center
09:08PM 43.0108 -92.9369 264° West 407 468 43,000  Level Minneapolis Center
09:09PM 42.9956 -93.1197 264° West 407 468 43,000  Level Minneapolis Center
09:10PM 42.9831 -93.2728 264° West 409 471 43,000  Level Minneapolis Center
09:11PM 42.9697 -93.4258 263° West 410 472 43,000 -60 Level Minneapolis Center
09:12PM 42.9569 -93.5792 264° West 410 472 42,900  Descending Minneapolis Center
09:13PM 42.9431 -93.7325 263° West 411 473 43,000  Climbing Minneapolis Center
09:14PM 42.9261 -93.9147 263° West 409 471 43,000  Level Minneapolis Center
09:15PM 42.9125 -94.0683 263° West 412 474 43,000  Level Minneapolis Center
09:16PM 42.8975 -94.2214 262° West 412 474 43,000  Level Minneapolis Center
09:17PM 42.8806 -94.3758 262° West 415 478 43,000  Level Minneapolis Center
09:18PM 42.8664 -94.5303 263° West 415 478 43,000  Level Minneapolis Center
09:19PM 42.8517 -94.6942 263° West 412 474 43,000  Level Minneapolis Center
09:20PM 42.8331 -94.8783 262° West 409 471 43,000  Level Minneapolis Center
09:21PM 42.8175 -95.0333 262° West 412 474 43,000  Level Minneapolis Center
09:22PM 42.8017 -95.1867 262° West 410 472 43,000  Level Minneapolis Center
09:23PM 42.7858 -95.3400 262° West 409 471 43,000  Level Minneapolis Center
09:24PM 42.7692 -95.4947 262° West 413 475 43,000  Level Minneapolis Center
09:25PM 42.7528 -95.6494 262° West 413 475 43,000  Level Minneapolis Center
09:26PM 42.7369 -95.8047 262° West 414 476 43,000  Level Minneapolis Center
09:27PM 42.7153 -95.9906 261° West 415 478 43,000  Level Minneapolis Center
09:28PM 42.6994 -96.1397 262° West 412 474 43,000  Level Minneapolis Center
09:29PM 42.6825 -96.2944 262° West 415 478 43,000  Level Minneapolis Center
09:30PM 42.6642 -96.4475 261° West 412 474 43,000  Level Minneapolis Center
09:31PM 42.6464 -96.6031 261° West 416 479 43,000  Level Minneapolis Center
09:33PM 42.6281 -96.7589 261° West 417 480 43,000  Level Minneapolis Center
09:34PM 42.6058 -96.9419 261° West 414 476 43,000  Level Minneapolis Center
09:35PM 42.5836 -97.1269 261° West 415 478 43,000  Level Minneapolis Center
09:36PM 42.5647 -97.2831 261° West 417 480 43,000  Level Minneapolis Center
09:37PM 42.5458 -97.4372 261° West 418 481 43,000  Level Minneapolis Center
09:38PM 42.5267 -97.5903 260° West 413 475 43,000  Level Minneapolis Center
09:39PM 42.5078 -97.7439 261° West 416 479 43,000  Level Minneapolis Center
09:40PM 42.4867 -97.9014 260° West 414 476 43,000  Level Minneapolis Center
09:41PM 42.4678 -98.0547 261° West 414 476 43,000  Level Minneapolis Center
09:42PM 42.4475 -98.2089 260° West 416 479 43,000  Level Minneapolis Center
09:43PM 42.4236 -98.3928 260° West 416 479 43,000  Level Minneapolis Center
09:44PM 42.4022 -98.5461 259° West 416 479 43,000  Level Minneapolis Center
09:45PM 42.3822 -98.6997 260° West 417 480 43,000  Level Minneapolis Center
09:46PM 42.3614 -98.8517 260° West 413 475 43,000  Level Minneapolis Center
09:47PM 42.3408 -99.0053 260° West 414 476 43,000  Level Minneapolis Center
09:48PM 42.3186 -99.1586 259° West 416 479 43,000  Level Minneapolis Center
09:49PM 42.3031 -99.2806 260° West 414 476 43,000  Level Minneapolis Center
09:50PM 42.2767 -99.4631 259° West 414 476 43,000  Level Minneapolis Center
09:51PM 42.2669 -99.5239 258° West 413 475 43,000  Level Denver Center
09:52PM 42.2417 -99.7019 259° West 419 482 43,000  Level Denver Center
09:53PM 42.2169 -99.8731 259° West 416 479 43,000  Level Denver Center
09:54PM 42.1944 -100.0192 258° West 418 481 43,000  Level Denver Center
09:55PM 42.1700 -100.1889 259° West 415 478 43,000  Level Denver Center
09:56PM 42.1481 -100.3350 259° West 417 480 43,000  Level Denver Center
09:57PM 42.1219 -100.5050 258° West 416 479 43,000  Level Denver Center
09:58PM 42.0994 -100.6531 258° West 421 484 43,000  Level Denver Center
09:59PM 42.0733 -100.8242 258° West 421 484 43,000  Level Denver Center
10:00PM 42.0508 -100.9722 258° West 423 487 43,000  Level Denver Center
10:01PM 42.0244 -101.1417 258° West 418 481 43,000  Level Denver Center
10:02PM 42.0000 -101.2875 257° West 418 481 43,000  Level Denver Center
10:03PM 41.9781 -101.4344 259° West 420 483 43,000  Level Denver Center
10:04PM 41.9494 -101.6058 257° West 421 484 43,000  Level Denver Center
10:05PM 41.9258 -101.7525 258° West 420 483 43,000  Level Denver Center
10:06PM 41.8961 -101.9256 257° West 426 490 43,000  Level Denver Center
10:07PM 41.8767 -102.0467 258° West 422 486 43,000  Level Denver Center
10:08PM 41.8442 -102.2453 258° West 420 483 43,000  Level Denver Center
10:09PM 41.8194 -102.3922 257° West 421 484 43,000  Level Denver Center
10:10PM 41.7933 -102.5411 257° West 426 490 43,000  Level Denver Center
10:11PM 41.7639 -102.7144 257° West 427 491 43,000  Level Denver Center
10:12PM 41.7378 -102.8628 257° West 429 494 43,000  Level Denver Center
10:13PM 41.7072 -103.0350 257° West 426 490 43,000  Level Denver Center
10:14PM 41.6811 -103.1817 257° West 424 488 43,000  Level Denver Center
10:15PM 41.6489 -103.3561 256° West 429 494 43,000  Level Denver Center
10:16PM 41.6228 -103.5044 257° West 429 494 43,000  Level Denver Center
10:17PM 41.5961 -103.6531 257° West 430 495 43,000  Level Denver Center
10:18PM 41.5639 -103.8256 256° West 427 491 43,000  Level Denver Center
10:19PM 41.5367 -103.9725 256° West 427 491 43,000  Level Denver Center
10:20PM 41.5050 -104.1447 256° West 427 491 43,000  Level Denver Center
10:21PM 41.4778 -104.2897 256° West 423 487 43,000  Level Denver Center
10:22PM 41.4500 -104.4336 256° West 419 482 43,000  Level Denver Center
10:23PM 41.4183 -104.6028 256° West 422 486 43,000  Level Denver Center
10:25PM 41.3908 -104.7458 256° West 418 481 43,000  Level Denver Center
10:26PM 41.3583 -104.9142 256° West 420 483 43,000  Level Denver Center
10:27PM 41.3303 -105.0569 255° West 416 479 43,000  Level Denver Center
10:28PM 41.2969 -105.2242 255° West 418 481 43,000  Level Denver Center
10:29PM 41.2681 -105.3717 255° West 428 493 43,000  Level Denver Center
10:30PM 41.2375 -105.5219 255° West 437 503 43,000  Level Denver Center
10:31PM 41.2025 -105.6989 255° West 441 507 43,000  Level Denver Center
10:32PM 41.1717 -105.8475 255° West 437 503 43,000  Level Denver Center
10:33PM 41.1369 -106.0192 255° West 433 498 43,000  Level Denver Center
10:34PM 41.1081 -106.1631 255° West 424 488 43,000  Level Denver Center
10:35PM 41.0753 -106.3214 255° West 425 489 43,000  Level Denver Center
10:36PM 41.0444 -106.4642 254° West 422 486 43,000  Level Denver Center
10:37PM 41.0097 -106.6325 255° West 423 487 43,000  Level Denver Center
10:38PM 40.9856 -106.7508 255° West 421 484 43,000  Level Denver Center
10:39PM 40.9425 -106.9422 253° West 424 488 43,000  Level Denver Center
10:40PM 40.9122 -107.0864 255° West 425 489 43,000  Level Denver Center
10:41PM 40.8811 -107.2306 254° West 426 490 43,000  Level Denver Center
10:42PM 40.8383 -107.4231 254° West 429 494 43,000  Level Denver Center
10:43PM 40.8019 -107.5911 254° West 426 490 43,000  Level Denver Center
10:44PM 40.7703 -107.7325 254° West 423 487 43,000  Level Denver Center
10:45PM 40.7397 -107.8703 254° West 416 479 43,000  Level Denver Center
10:46PM 40.7028 -108.0342 253° West 419 482 43,000  Level Denver Center
10:47PM 40.6708 -108.1728 253° West 415 478 43,000  Level Denver Center
10:48PM 40.6333 -108.3417 254° West 427 491 43,000  Level Denver Center
10:49PM 40.6056 -108.4606 253° West 429 494 43,000  Level Denver Center
10:50PM 40.5622 -108.6461 253° West 419 482 43,000  Level Denver Center
10:51PM 40.5306 -108.7864 254° West 418 481 43,000  Level Denver Center
10:52PM 40.4972 -108.9275 253° West 421 484 43,000  Level Denver Center
10:53PM 40.4589 -109.0872 253° West 414 476 43,000  Level Denver Center
10:54PM 40.4322 -109.2028 253° West 416 479 43,000  Level Salt Lake Center
10:55PM 40.3928 -109.3642 252° West 417 480 43,000  Level Salt Lake Center
10:56PM 40.3597 -109.5061 253° West 424 488 43,000  Level Salt Lake Center
10:57PM 40.3200 -109.6686 252° West 422 486 43,000  Level Salt Lake Center
10:58PM 40.2858 -109.8061 252° West 417 480 43,000  Level Salt Lake Center
10:59PM 40.2467 -109.9697 253° West 422 486 43,000  Level Salt Lake Center
11:00PM 40.2117 -110.1081 252° West 420 483 43,000  Level Salt Lake Center
11:02PM 40.1767 -110.2492 252° West 424 488 43,000  Level Salt Lake Center
11:03PM 40.1358 -110.4136 252° West 427 491 43,000  Level Salt Lake Center
11:04PM 40.1006 -110.5544 252° West 428 493 43,000  Level Salt Lake Center
11:05PM 40.0597 -110.7192 252° West 427 491 43,000  Level Salt Lake Center
11:06PM 40.0242 -110.8586 252° West 424 488 43,000  Level Salt Lake Center
11:07PM 39.9833 -111.0197 252° West 419 482 43,000  Level Salt Lake Center
11:08PM 39.9467 -111.1569 251° West 418 481 43,000  Level Salt Lake Center
11:09PM 39.9119 -111.2964 252° West 422 486 43,000  Level Salt Lake Center
11:10PM 39.8697 -111.4564 251° West 419 482 43,000  Level Salt Lake Center
11:11PM 39.8336 -111.5931 251° West 418 481 43,000  Level Salt Lake Center
11:12PM 39.7958 -111.7397 252° West 422 486 43,000  Level Salt Lake Center
11:13PM 39.7572 -111.8869 251° West 429 494 43,000  Level Salt Lake Center
11:14PM 39.7178 -112.0353 251° West 433 498 43,000  Level Salt Lake Center
11:15PM 39.6778 -112.1828 251° West 433 498 43,000  Level Salt Lake Center
11:16PM 39.6306 -112.3583 251° West 431 496 43,000  Level Salt Lake Center
11:17PM 39.5911 -112.5042 251° West 430 495 43,000  Level Salt Lake Center
11:18PM 39.5469 -112.6478 248° West 430 495 43,000  Level Salt Lake Center
11:19PM 39.5061 -112.7714 247° West 428 493 43,000  Level Salt Lake Center
11:20PM 39.4497 -112.9456 247° West 438 504 43,000  Level Salt Lake Center
11:21PM 39.4033 -113.0875 247° West 433 498 43,000  Level Salt Lake Center
11:22PM 39.3569 -113.2306 247° West 434 499 43,000  Level Salt Lake Center
11:23PM 39.3094 -113.3750 247° West 437 503 43,000  Level Salt Lake Center
11:24PM 39.2611 -113.5203 247° West 442 509 43,000  Level Salt Lake Center
11:25PM 39.2153 -113.6617 247° West 434 499 43,000  Level Salt Lake Center
11:26PM 39.1669 -113.8044 246° West 435 501 43,000  Level Salt Lake Center
11:27PM 39.1203 -113.9425 246° West 425 489 43,000  Level Salt Lake Center
11:28PM 39.0664 -114.1044 247° West 414 476 43,000  Level Salt Lake Center
11:29PM 39.0206 -114.2369 246° West 408 470 43,100  Climbing Salt Lake Center
11:30PM 38.9756 -114.3706 247° West 409 471 43,000  Descending Salt Lake Center
11:31PM 38.9297 -114.5039 246° West 408 470 43,100  Climbing Salt Lake Center
11:32PM 38.8842 -114.6408 247° West 416 479 43,000 -60 Descending Salt Lake Center
11:33PM 38.8375 -114.7756 246° West 415 478 43,000  Level Salt Lake Center
11:34PM 38.7908 -114.9067 245° Southwest 409 471 43,000  Level Salt Lake Center
11:35PM 38.7453 -115.0392 246° West 406 467 43,000  Level Salt Lake Center
11:36PM 38.6961 -115.1753 245° Southwest 417 480 43,000  Level Salt Lake Center
11:37PM 38.6394 -115.3347 246° West 415 478 43,000  Level Salt Lake Center
11:38PM 38.6014 -115.4444 246° West 403 464 43,000  Level Salt Lake Center
11:39PM 38.5464 -115.6008 246° West 403 464 43,000  Level Salt Lake Center
11:40PM 38.4981 -115.7353 245° Southwest 414 476 43,000  Level Salt Lake Center
11:42PM 38.4114 -115.9761 245° Southwest 415 478 43,000  Level Oakland Center
11:43PM 38.3631 -116.1097 245° Southwest 414 476 43,000  Level Oakland Center
11:44PM 38.3147 -116.2431 245° Southwest 414 476 43,000  Level Oakland Center
11:45PM 38.2653 -116.3772 245° Southwest 418 481 43,000  Level Oakland Center
11:46PM 38.2161 -116.5133 245° Southwest 423 487 43,000  Level Oakland Center
11:47PM 38.1664 -116.6461 245° Southwest 419 482 43,000  Level Oakland Center
11:48PM 38.1183 -116.7775 245° Southwest 411 473 43,000  Level Oakland Center
11:49PM 38.0700 -116.9072 245° Southwest 405 466 43,000  Level Oakland Center
11:50PM 38.0236 -117.0411 246° West 407 468 43,000  Level Oakland Center
11:51PM 37.9756 -117.1769 246° West 412 474 43,000  Level Oakland Center
11:52PM 37.9267 -117.3142 246° West 419 482 43,000 -300 Level Oakland Center
11:54PM 37.8314 -117.5800 246° West 411 473 42,100 -660 Descending Oakland Center
11:55PM 37.7828 -117.7150 246° West 418 481 41,000 -1,140 Descending Oakland Center
11:56PM 37.7358 -117.8431 245° Southwest 405 466 39,900 -1,260 Descending Oakland Center
11:57PM 37.6822 -117.9922 246° West 390 449 38,500 -1,200 Descending Oakland Center
11:58PM 37.6364 -118.1158 245° Southwest 388 447 37,500 -1,080 Descending Oakland Center
12:00AM 37.5903 -118.2422 245° Southwest 394 453 36,400 -1,140 Descending Oakland Center
12:01AM 37.5422 -118.3758 246° West 415 478 35,300 -1,140 Descending Oakland Center
12:02AM 37.4931 -118.5086 245° Southwest 418 481 34,200 -1,080 Descending Oakland Center
12:03AM 37.4433 -118.6428 245° Southwest 421 484 33,100 -1,080 Descending Oakland Center
12:04AM 37.3956 -118.7775 246° West 421 484 32,000 -1,140 Descending Oakland Center
12:05AM 37.3750 -118.9292 260° West 438 504 30,900 -1,080 Descending Oakland Center
12:06AM 37.3608 -119.0781 263° West 431 496 29,900 -1,200 Descending Oakland Center
12:07AM 37.3461 -119.2311 263° West 441 507 28,600 -1,320 Descending Oakland Center
12:08AM 37.3319 -119.3817 263° West 438 504 27,300 -1,320 Descending Oakland Center
12:09AM 37.3144 -119.5281 261° West 427 491 26,000 -1,260 Descending Oakland Center
12:10AM 37.2986 -119.6744 262° West 424 488 24,800 -1,320 Descending Oakland Center
12:11AM 37.2792 -119.8472 262° West 419 482 23,300 -1,380 Descending Oakland Center
12:12AM 37.2639 -119.9869 262° West 406 467 22,000 -1,500 Descending Oakland Center
12:13AM 37.2481 -120.1239 262° West 395 455 20,300 -1,680 Descending Oakland Center
12:14AM 37.2342 -120.2558 263° West 380 437 18,600 -1,680 Descending Oakland Center
12:15AM 37.2192 -120.3847 262° West 376 433 17,000 -1,560 Descending Oakland Center
12:16AM 37.1953 -120.5075 256° West 363 418 15,500 -1,560 Descending Oakland Center
12:17AM 37.1694 -120.6272 255° West 357 411 13,900 -1,560 Descending Oakland Center
12:18AM 37.1450 -120.7456 256° West 352 405 12,400 -1,320 Descending Oakland Center
12:19AM 37.1203 -120.8606 255° West 342 394 11,300 -1,020 Descending Oakland Center
12:20AM 37.0842 -120.9525 244° Southwest 299 344 10,400 -660 Descending Oakland Center
12:21AM 37.0489 -121.0389 243° Southwest 280 322 10,000 -240 Descending Oakland Center
12:22AM 37.0142 -121.1250 243° Southwest 278 320 10,000 -240 Level Oakland Center
12:23AM 36.9825 -121.2158 246° West 274 315 9,600 -840 Descending Oakland Center
12:24AM 37.0097 -121.3044 291° West 272 313 8,300 -840 Descending Oakland Center
12:25AM 37.0433 -121.3889 297° West 272 313 7,900 -840 Descending Oakland Center
12:26AM 37.0742 -121.4719 295° West 265 305 6,700 -1,380 Descending Oakland Center
12:27AM 37.1039 -121.5517 295° West 256 295 5,200 -900 Descending Oakland Center
12:28AM 37.1344 -121.6336 295° West 219 252 4,900 -180 Descending Oakland Center
12:29AM 37.1561 -121.6928 295° West 195 224 4,900 -240 Level Oakland Center
12:30AM 37.1869 -121.7411 309° West 186 214 4,500 -720 Descending Oakland Center
12:31AM 37.2253 -121.7819 320° Northwest 182 209 3,500 -960 Descending Oakland Center
12:32AM 37.2628 -121.8197 321° Northwest 178 205 2,600 -960 Descending Oakland Center
12:33AM 37.2967 -121.8547 321° Northwest 169 194 1,600 -840 Descending Oakland Center
12:34AM 37.3231 -121.8839 319° Northwest 145 167 1,000 -660 Descending Oakland Center
12:35AM 37.3483 -121.9111 319° Northwest 131 151 300 -720 Descending Oakland Center
12:37AM 37.3500 -121.9167 North  Level FlightAware Approximate
12:44AM 37.3627 -121.9291 North  Level Estimated